sensor_id;sensor_type;location;lat;lon;timestamp;P1;durP1;ratioP1;P2;durP2;ratioP2
21099;SDS011;10708;50.824;4.408;2023-03-23T00:01:37;474.07;;;135.07;;
21099;SDS011;10708;50.824;4.408;2023-03-23T00:06:39;517.77;;;143.10;;
21099;SDS011;10708;50.824;4.408;2023-03-23T00:11:42;508.57;;;141.00;;
21099;SDS011;10708;50.824;4.408;2023-03-23T00:16:46;497.57;;;136.17;;
21099;SDS011;10708;50.824;4.408;2023-03-23T00:21:48;491.90;;;139.33;;
21099;SDS011;10708;50.824;4.408;2023-03-23T00:26:54;489.00;;;132.40;;
21099;SDS011;10708;50.824;4.408;2023-03-23T00:32:00;497.53;;;148.33;;
21099;SDS011;10708;50.824;4.408;2023-03-23T00:37:03;480.37;;;140.93;;
21099;SDS011;10708;50.824;4.408;2023-03-23T00:42:05;481.90;;;133.07;;
21099;SDS011;10708;50.824;4.408;2023-03-23T00:47:10;482.53;;;144.67;;
21099;SDS011;10708;50.824;4.408;2023-03-23T00:52:13;483.40;;;138.73;;
21099;SDS011;10708;50.824;4.408;2023-03-23T00:57:15;507.80;;;145.13;;
21099;SDS011;10708;50.824;4.408;2023-03-23T01:02:19;505.00;;;138.53;;
21099;SDS011;10708;50.824;4.408;2023-03-23T01:07:25;509.37;;;136.77;;
21099;SDS011;10708;50.824;4.408;2023-03-23T01:12:28;513.40;;;140.57;;
21099;SDS011;10708;50.824;4.408;2023-03-23T01:17:32;507.23;;;148.20;;
21099;SDS011;10708;50.824;4.408;2023-03-23T01:22:34;507.40;;;163.97;;
21099;SDS011;10708;50.824;4.408;2023-03-23T01:27:37;504.23;;;147.70;;
21099;SDS011;10708;50.824;4.408;2023-03-23T01:32:41;505.53;;;135.77;;
21099;SDS011;10708;50.824;4.408;2023-03-23T01:37:44;490.40;;;145.17;;
21099;SDS011;10708;50.824;4.408;2023-03-23T01:42:47;482.83;;;134.90;;
21099;SDS011;10708;50.824;4.408;2023-03-23T01:47:52;486.30;;;132.90;;
21099;SDS011;10708;50.824;4.408;2023-03-23T01:53:04;489.30;;;139.60;;
21099;SDS011;10708;50.824;4.408;2023-03-23T01:58:10;482.57;;;138.60;;
21099;SDS011;10708;50.824;4.408;2023-03-23T02:03:15;485.93;;;138.83;;
21099;SDS011;10708;50.824;4.408;2023-03-23T02:08:18;510.93;;;185.77;;
21099;SDS011;10708;50.824;4.408;2023-03-23T02:13:21;514.50;;;147.23;;
21099;SDS011;10708;50.824;4.408;2023-03-23T02:18:29;490.17;;;142.33;;
21099;SDS011;10708;50.824;4.408;2023-03-23T02:29:27;494.07;;;147.40;;
21099;SDS011;10708;50.824;4.408;2023-03-23T02:34:53;486.20;;;148.43;;
21099;SDS011;10708;50.824;4.408;2023-03-23T02:40:00;496.03;;;149.60;;
21099;SDS011;10708;50.824;4.408;2023-03-23T02:45:10;493.43;;;171.13;;
21099;SDS011;10708;50.824;4.408;2023-03-23T02:50:16;478.60;;;138.63;;
21099;SDS011;10708;50.824;4.408;2023-03-23T02:55:21;494.07;;;151.13;;
21099;SDS011;10708;50.824;4.408;2023-03-23T03:00:25;493.23;;;148.67;;
21099;SDS011;10708;50.824;4.408;2023-03-23T03:05:32;489.80;;;149.37;;
21099;SDS011;10708;50.824;4.408;2023-03-23T03:10:42;507.67;;;184.47;;
21099;SDS011;10708;50.824;4.408;2023-03-23T03:15:51;496.63;;;136.20;;
21099;SDS011;10708;50.824;4.408;2023-03-23T03:21:01;510.87;;;172.50;;
21099;SDS011;10708;50.824;4.408;2023-03-23T03:26:07;497.93;;;149.27;;
21099;SDS011;10708;50.824;4.408;2023-03-23T03:31:13;488.33;;;138.23;;
21099;SDS011;10708;50.824;4.408;2023-03-23T03:36:22;487.63;;;134.80;;
21099;SDS011;10708;50.824;4.408;2023-03-23T03:41:28;488.17;;;140.07;;
21099;SDS011;10708;50.824;4.408;2023-03-23T03:46:30;506.37;;;156.60;;
21099;SDS011;10708;50.824;4.408;2023-03-23T03:51:34;521.33;;;195.80;;
21099;SDS011;10708;50.824;4.408;2023-03-23T03:56:37;536.43;;;147.40;;
21099;SDS011;10708;50.824;4.408;2023-03-23T04:01:40;513.80;;;146.10;;
21099;SDS011;10708;50.824;4.408;2023-03-23T04:06:44;538.23;;;157.40;;
21099;SDS011;10708;50.824;4.408;2023-03-23T04:11:49;588.70;;;162.73;;
21099;SDS011;10708;50.824;4.408;2023-03-23T04:16:51;614.23;;;179.90;;
21099;SDS011;10708;50.824;4.408;2023-03-23T04:21:58;638.90;;;181.30;;
21099;SDS011;10708;50.824;4.408;2023-03-23T04:27:01;653.53;;;181.63;;
21099;SDS011;10708;50.824;4.408;2023-03-23T04:32:04;664.97;;;190.03;;
21099;SDS011;10708;50.824;4.408;2023-03-23T04:37:08;694.40;;;216.13;;
21099;SDS011;10708;50.824;4.408;2023-03-23T04:42:10;673.43;;;206.97;;
21099;SDS011;10708;50.824;4.408;2023-03-23T04:47:14;671.87;;;216.77;;
21099;SDS011;10708;50.824;4.408;2023-03-23T04:52:19;657.07;;;185.77;;
21099;SDS011;10708;50.824;4.408;2023-03-23T04:57:21;666.97;;;201.40;;
21099;SDS011;10708;50.824;4.408;2023-03-23T05:02:24;670.20;;;203.73;;
21099;SDS011;10708;50.824;4.408;2023-03-23T05:07:32;650.73;;;176.80;;
21099;SDS011;10708;50.824;4.408;2023-03-23T05:12:35;650.23;;;182.40;;
21099;SDS011;10708;50.824;4.408;2023-03-23T05:17:37;653.13;;;189.13;;
21099;SDS011;10708;50.824;4.408;2023-03-23T05:22:42;645.77;;;200.87;;
21099;SDS011;10708;50.824;4.408;2023-03-23T05:27:45;652.03;;;182.60;;
21099;SDS011;10708;50.824;4.408;2023-03-23T05:32:53;650.07;;;177.03;;
21099;SDS011;10708;50.824;4.408;2023-03-23T05:37:56;643.13;;;174.43;;
21099;SDS011;10708;50.824;4.408;2023-03-23T05:42:58;661.13;;;181.17;;
21099;SDS011;10708;50.824;4.408;2023-03-23T05:48:01;661.67;;;188.23;;
21099;SDS011;10708;50.824;4.408;2023-03-23T05:53:05;663.27;;;188.90;;
21099;SDS011;10708;50.824;4.408;2023-03-23T05:58:07;665.37;;;187.73;;
21099;SDS011;10708;50.824;4.408;2023-03-23T06:03:09;666.00;;;188.47;;
21099;SDS011;10708;50.824;4.408;2023-03-23T06:08:13;687.20;;;261.03;;
21099;SDS011;10708;50.824;4.408;2023-03-23T06:13:16;662.87;;;184.70;;
21099;SDS011;10708;50.824;4.408;2023-03-23T06:18:18;673.20;;;193.13;;
21099;SDS011;10708;50.824;4.408;2023-03-23T06:23:23;684.40;;;221.87;;
21099;SDS011;10708;50.824;4.408;2023-03-23T06:28:26;676.20;;;203.30;;
21099;SDS011;10708;50.824;4.408;2023-03-23T06:33:29;692.33;;;302.53;;
21099;SDS011;10708;50.824;4.408;2023-03-23T06:38:32;677.30;;;201.47;;
21099;SDS011;10708;50.824;4.408;2023-03-23T06:43:35;673.30;;;214.03;;
21099;SDS011;10708;50.824;4.408;2023-03-23T06:48:39;690.50;;;310.63;;
21099;SDS011;10708;50.824;4.408;2023-03-23T06:53:43;660.90;;;201.50;;
21099;SDS011;10708;50.824;4.408;2023-03-23T06:58:46;675.90;;;252.70;;
21099;SDS011;10708;50.824;4.408;2023-03-23T07:03:49;659.87;;;203.97;;
21099;SDS011;10708;50.824;4.408;2023-03-23T07:08:52;668.27;;;225.53;;
21099;SDS011;10708;50.824;4.408;2023-03-23T07:13:55;646.23;;;172.43;;
21099;SDS011;10708;50.824;4.408;2023-03-23T07:18:57;638.10;;;175.00;;
21099;SDS011;10708;50.824;4.408;2023-03-23T07:24:01;681.33;;;338.90;;
21099;SDS011;10708;50.824;4.408;2023-03-23T07:29:04;669.60;;;324.27;;
21099;SDS011;10708;50.824;4.408;2023-03-23T07:34:07;651.63;;;244.40;;
21099;SDS011;10708;50.824;4.408;2023-03-23T07:39:11;630.70;;;165.23;;
21099;SDS011;10708;50.824;4.408;2023-03-23T07:44:13;633.53;;;173.43;;
21099;SDS011;10708;50.824;4.408;2023-03-23T07:49:16;630.70;;;174.70;;
21099;SDS011;10708;50.824;4.408;2023-03-23T07:54:20;647.20;;;181.47;;
21099;SDS011;10708;50.824;4.408;2023-03-23T07:59:23;635.80;;;169.80;;
21099;SDS011;10708;50.824;4.408;2023-03-23T08:04:25;636.17;;;165.83;;
21099;SDS011;10708;50.824;4.408;2023-03-23T08:09:29;670.47;;;322.77;;
21099;SDS011;10708;50.824;4.408;2023-03-23T08:14:32;660.10;;;254.93;;
21099;SDS011;10708;50.824;4.408;2023-03-23T08:19:35;657.87;;;224.23;;
21099;SDS011;10708;50.824;4.408;2023-03-23T08:24:39;634.10;;;184.20;;
21099;SDS011;10708;50.824;4.408;2023-03-23T08:29:43;638.33;;;179.43;;
21099;SDS011;10708;50.824;4.408;2023-03-23T08:34:46;644.27;;;189.40;;
21099;SDS011;10708;50.824;4.408;2023-03-23T08:39:52;645.67;;;203.50;;
21099;SDS011;10708;50.824;4.408;2023-03-23T08:44:54;669.40;;;293.63;;
21099;SDS011;10708;50.824;4.408;2023-03-23T08:49:57;639.00;;;170.53;;
21099;SDS011;10708;50.824;4.408;2023-03-23T08:55:00;648.03;;;186.93;;
21099;SDS011;10708;50.824;4.408;2023-03-23T09:00:04;659.83;;;225.87;;
21099;SDS011;10708;50.824;4.408;2023-03-23T09:05:15;644.47;;;192.50;;
21099;SDS011;10708;50.824;4.408;2023-03-23T09:10:20;654.67;;;234.83;;
21099;SDS011;10708;50.824;4.408;2023-03-23T09:15:25;645.47;;;193.83;;
21099;SDS011;10708;50.824;4.408;2023-03-23T09:20:27;645.63;;;200.47;;
21099;SDS011;10708;50.824;4.408;2023-03-23T09:25:31;651.70;;;240.27;;
21099;SDS011;10708;50.824;4.408;2023-03-23T09:30:34;656.80;;;227.67;;
21099;SDS011;10708;50.824;4.408;2023-03-23T09:35:38;643.33;;;198.00;;
21099;SDS011;10708;50.824;4.408;2023-03-23T09:40:45;663.17;;;236.07;;
21099;SDS011;10708;50.824;4.408;2023-03-23T09:45:51;653.80;;;207.80;;
21099;SDS011;10708;50.824;4.408;2023-03-23T09:51:00;660.73;;;208.30;;
21099;SDS011;10708;50.824;4.408;2023-03-23T09:56:11;654.27;;;197.67;;
21099;SDS011;10708;50.824;4.408;2023-03-23T10:01:19;662.20;;;230.30;;
21099;SDS011;10708;50.824;4.408;2023-03-23T10:06:24;654.37;;;191.67;;
21099;SDS011;10708;50.824;4.408;2023-03-23T10:11:30;665.00;;;219.83;;
21099;SDS011;10708;50.824;4.408;2023-03-23T10:16:48;661.53;;;203.43;;
21099;SDS011;10708;50.824;4.408;2023-03-23T10:21:58;674.73;;;235.07;;
21099;SDS011;10708;50.824;4.408;2023-03-23T10:27:10;678.43;;;241.47;;
21099;SDS011;10708;50.824;4.408;2023-03-23T10:32:34;686.70;;;252.77;;
21099;SDS011;10708;50.824;4.408;2023-03-23T10:37:42;687.37;;;230.67;;
21099;SDS011;10708;50.824;4.408;2023-03-23T10:42:50;676.13;;;213.13;;
21099;SDS011;10708;50.824;4.408;2023-03-23T10:47:56;684.37;;;222.73;;
21099;SDS011;10708;50.824;4.408;2023-03-23T10:53:03;698.87;;;249.30;;
21099;SDS011;10708;50.824;4.408;2023-03-23T10:58:23;692.87;;;270.67;;
21099;SDS011;10708;50.824;4.408;2023-03-23T11:03:34;683.53;;;238.50;;
21099;SDS011;10708;50.824;4.408;2023-03-23T11:08:52;693.37;;;270.77;;
21099;SDS011;10708;50.824;4.408;2023-03-23T11:13:59;691.50;;;243.73;;
21099;SDS011;10708;50.824;4.408;2023-03-23T11:19:11;708.50;;;258.77;;
21099;SDS011;10708;50.824;4.408;2023-03-23T11:24:15;717.67;;;278.33;;
21099;SDS011;10708;50.824;4.408;2023-03-23T11:29:19;727.10;;;301.03;;
21099;SDS011;10708;50.824;4.408;2023-03-23T11:34:25;718.07;;;274.53;;
21099;SDS011;10708;50.824;4.408;2023-03-23T11:39:34;722.13;;;306.13;;
21099;SDS011;10708;50.824;4.408;2023-03-23T11:44:48;709.10;;;250.97;;
21099;SDS011;10708;50.824;4.408;2023-03-23T11:49:53;717.07;;;288.17;;
21099;SDS011;10708;50.824;4.408;2023-03-23T11:55:00;718.73;;;274.03;;
21099;SDS011;10708;50.824;4.408;2023-03-23T12:00:14;724.13;;;268.97;;
21099;SDS011;10708;50.824;4.408;2023-03-23T12:05:30;735.27;;;282.60;;
21099;SDS011;10708;50.824;4.408;2023-03-23T12:10:46;744.13;;;287.80;;
21099;SDS011;10708;50.824;4.408;2023-03-23T12:15:58;762.30;;;341.87;;
21099;SDS011;10708;50.824;4.408;2023-03-23T12:21:12;741.53;;;286.20;;
21099;SDS011;10708;50.824;4.408;2023-03-23T12:26:25;743.57;;;318.67;;
21099;SDS011;10708;50.824;4.408;2023-03-23T12:31:36;739.50;;;287.77;;
21099;SDS011;10708;50.824;4.408;2023-03-23T12:36:52;739.80;;;288.17;;
21099;SDS011;10708;50.824;4.408;2023-03-23T12:42:03;760.87;;;317.43;;
21099;SDS011;10708;50.824;4.408;2023-03-23T12:47:20;734.93;;;283.87;;
21099;SDS011;10708;50.824;4.408;2023-03-23T12:52:32;749.47;;;311.60;;
21099;SDS011;10708;50.824;4.408;2023-03-23T12:57:43;731.63;;;264.80;;
21099;SDS011;10708;50.824;4.408;2023-03-23T13:02:56;740.70;;;299.67;;
21099;SDS011;10708;50.824;4.408;2023-03-23T13:08:04;751.43;;;331.73;;
21099;SDS011;10708;50.824;4.408;2023-03-23T13:13:18;766.03;;;336.90;;
21099;SDS011;10708;50.824;4.408;2023-03-23T13:18:27;771.93;;;311.70;;
21099;SDS011;10708;50.824;4.408;2023-03-23T13:23:41;764.80;;;307.53;;
21099;SDS011;10708;50.824;4.408;2023-03-23T13:28:48;784.73;;;333.83;;
21099;SDS011;10708;50.824;4.408;2023-03-23T13:34:02;795.47;;;354.30;;
21099;SDS011;10708;50.824;4.408;2023-03-23T13:39:17;787.13;;;346.33;;
21099;SDS011;10708;50.824;4.408;2023-03-23T13:44:25;780.57;;;342.40;;
21099;SDS011;10708;50.824;4.408;2023-03-23T13:49:31;775.00;;;335.53;;
21099;SDS011;10708;50.824;4.408;2023-03-23T13:54:39;768.47;;;317.70;;
21099;SDS011;10708;50.824;4.408;2023-03-23T13:59:46;795.40;;;345.03;;
21099;SDS011;10708;50.824;4.408;2023-03-23T14:04:52;748.73;;;282.87;;
21099;SDS011;10708;50.824;4.408;2023-03-23T14:09:56;757.30;;;304.87;;
21099;SDS011;10708;50.824;4.408;2023-03-23T14:14:59;719.47;;;250.60;;
21099;SDS011;10708;50.824;4.408;2023-03-23T14:20:09;691.87;;;217.37;;
21099;SDS011;10708;50.824;4.408;2023-03-23T14:25:26;680.77;;;212.07;;
21099;SDS011;10708;50.824;4.408;2023-03-23T14:30:34;681.27;;;232.47;;
21099;SDS011;10708;50.824;4.408;2023-03-23T14:35:41;690.20;;;237.80;;
21099;SDS011;10708;50.824;4.408;2023-03-23T14:40:45;689.30;;;249.70;;
21099;SDS011;10708;50.824;4.408;2023-03-23T14:45:54;704.63;;;314.33;;
21099;SDS011;10708;50.824;4.408;2023-03-23T14:50:59;688.23;;;235.93;;
21099;SDS011;10708;50.824;4.408;2023-03-23T14:56:09;682.33;;;258.50;;
21099;SDS011;10708;50.824;4.408;2023-03-23T15:01:15;688.17;;;225.30;;
21099;SDS011;10708;50.824;4.408;2023-03-23T15:06:21;721.97;;;349.33;;
21099;SDS011;10708;50.824;4.408;2023-03-23T15:11:28;698.73;;;249.17;;
21099;SDS011;10708;50.824;4.408;2023-03-23T15:16:33;700.63;;;246.33;;
21099;SDS011;10708;50.824;4.408;2023-03-23T15:21:47;702.70;;;258.30;;
21099;SDS011;10708;50.824;4.408;2023-03-23T15:26:51;706.00;;;259.20;;
21099;SDS011;10708;50.824;4.408;2023-03-23T15:31:55;708.63;;;246.40;;
21099;SDS011;10708;50.824;4.408;2023-03-23T15:37:00;710.33;;;236.07;;
21099;SDS011;10708;50.824;4.408;2023-03-23T15:42:05;735.17;;;289.63;;
21099;SDS011;10708;50.824;4.408;2023-03-23T15:47:14;719.73;;;252.13;;
21099;SDS011;10708;50.824;4.408;2023-03-23T15:52:20;728.37;;;317.27;;
21099;SDS011;10708;50.824;4.408;2023-03-23T15:57:22;724.13;;;295.87;;
21099;SDS011;10708;50.824;4.408;2023-03-23T16:02:25;714.37;;;251.97;;
21099;SDS011;10708;50.824;4.408;2023-03-23T16:07:29;706.13;;;288.07;;
21099;SDS011;10708;50.824;4.408;2023-03-23T16:12:32;713.20;;;269.80;;
21099;SDS011;10708;50.824;4.408;2023-03-23T16:17:34;704.33;;;269.23;;
21099;SDS011;10708;50.824;4.408;2023-03-23T16:22:38;710.70;;;270.23;;
21099;SDS011;10708;50.824;4.408;2023-03-23T16:27:41;711.03;;;287.93;;
21099;SDS011;10708;50.824;4.408;2023-03-23T16:32:45;709.37;;;252.23;;
21099;SDS011;10708;50.824;4.408;2023-03-23T16:37:50;707.17;;;248.10;;
21099;SDS011;10708;50.824;4.408;2023-03-23T16:42:53;714.93;;;271.10;;
21099;SDS011;10708;50.824;4.408;2023-03-23T16:47:56;697.10;;;231.47;;
21099;SDS011;10708;50.824;4.408;2023-03-23T16:53:02;702.37;;;238.73;;
21099;SDS011;10708;50.824;4.408;2023-03-23T16:58:06;714.40;;;270.47;;
21099;SDS011;10708;50.824;4.408;2023-03-23T17:03:08;726.53;;;255.27;;
21099;SDS011;10708;50.824;4.408;2023-03-23T17:08:13;704.57;;;243.53;;
21099;SDS011;10708;50.824;4.408;2023-03-23T17:13:15;691.77;;;222.43;;
21099;SDS011;10708;50.824;4.408;2023-03-23T17:18:18;700.07;;;241.30;;
21099;SDS011;10708;50.824;4.408;2023-03-23T17:23:22;700.43;;;236.17;;
21099;SDS011;10708;50.824;4.408;2023-03-23T17:28:25;701.47;;;248.70;;
21099;SDS011;10708;50.824;4.408;2023-03-23T17:33:27;700.20;;;251.07;;
21099;SDS011;10708;50.824;4.408;2023-03-23T17:38:31;706.67;;;241.03;;
21099;SDS011;10708;50.824;4.408;2023-03-23T17:43:33;703.23;;;242.83;;
21099;SDS011;10708;50.824;4.408;2023-03-23T17:48:37;694.83;;;233.50;;
21099;SDS011;10708;50.824;4.408;2023-03-23T17:53:41;708.23;;;270.77;;
21099;SDS011;10708;50.824;4.408;2023-03-23T17:58:43;698.23;;;245.93;;
21099;SDS011;10708;50.824;4.408;2023-03-23T18:03:46;714.60;;;316.67;;
21099;SDS011;10708;50.824;4.408;2023-03-23T18:08:50;701.20;;;245.93;;
21099;SDS011;10708;50.824;4.408;2023-03-23T18:13:53;692.03;;;223.30;;
21099;SDS011;10708;50.824;4.408;2023-03-23T18:18:56;703.30;;;271.57;;
21099;SDS011;10708;50.824;4.408;2023-03-23T18:24:00;695.00;;;245.33;;
21099;SDS011;10708;50.824;4.408;2023-03-23T18:29:02;689.60;;;231.67;;
21099;SDS011;10708;50.824;4.408;2023-03-23T18:34:05;692.03;;;241.50;;
21099;SDS011;10708;50.824;4.408;2023-03-23T18:39:09;711.47;;;261.40;;
21099;SDS011;10708;50.824;4.408;2023-03-23T18:44:12;712.50;;;264.70;;
21099;SDS011;10708;50.824;4.408;2023-03-23T18:49:14;688.90;;;221.50;;
21099;SDS011;10708;50.824;4.408;2023-03-23T18:54:18;694.63;;;240.27;;
21099;SDS011;10708;50.824;4.408;2023-03-23T18:59:20;686.03;;;211.70;;
21099;SDS011;10708;50.824;4.408;2023-03-23T19:04:23;689.30;;;231.47;;
21099;SDS011;10708;50.824;4.408;2023-03-23T19:09:33;682.00;;;219.27;;
21099;SDS011;10708;50.824;4.408;2023-03-23T19:14:36;705.23;;;329.87;;
21099;SDS011;10708;50.824;4.408;2023-03-23T19:19:40;678.53;;;223.03;;
21099;SDS011;10708;50.824;4.408;2023-03-23T19:24:43;683.03;;;223.47;;
21099;SDS011;10708;50.824;4.408;2023-03-23T19:29:46;674.87;;;223.37;;
21099;SDS011;10708;50.824;4.408;2023-03-23T19:34:48;674.87;;;214.33;;
21099;SDS011;10708;50.824;4.408;2023-03-23T19:39:52;678.37;;;234.13;;
21099;SDS011;10708;50.824;4.408;2023-03-23T19:44:54;673.43;;;222.70;;
21099;SDS011;10708;50.824;4.408;2023-03-23T19:49:57;665.17;;;234.00;;
21099;SDS011;10708;50.824;4.408;2023-03-23T19:55:02;655.60;;;208.43;;
21099;SDS011;10708;50.824;4.408;2023-03-23T20:00:05;665.90;;;236.60;;
21099;SDS011;10708;50.824;4.408;2023-03-23T20:05:08;658.83;;;208.53;;
21099;SDS011;10708;50.824;4.408;2023-03-23T20:10:14;659.70;;;255.53;;
21099;SDS011;10708;50.824;4.408;2023-03-23T20:15:16;649.03;;;188.30;;
21099;SDS011;10708;50.824;4.408;2023-03-23T20:20:19;671.57;;;226.73;;
21099;SDS011;10708;50.824;4.408;2023-03-23T20:25:23;657.33;;;203.70;;
21099;SDS011;10708;50.824;4.408;2023-03-23T20:30:26;652.60;;;194.00;;
21099;SDS011;10708;50.824;4.408;2023-03-23T20:35:28;876.30;;;481.77;;
21099;SDS011;10708;50.824;4.408;2023-03-23T20:40:32;898.28;;;544.80;;
21099;SDS011;10708;50.824;4.408;2023-03-23T20:45:35;904.72;;;552.83;;
21099;SDS011;10708;50.824;4.408;2023-03-23T20:50:37;858.28;;;486.35;;
21099;SDS011;10708;50.824;4.408;2023-03-23T20:55:41;888.97;;;510.77;;
21099;SDS011;10708;50.824;4.408;2023-03-23T21:00:45;904.95;;;562.25;;
21099;SDS011;10708;50.824;4.408;2023-03-23T21:05:49;906.95;;;539.33;;
21099;SDS011;10708;50.824;4.408;2023-03-23T21:10:53;897.75;;;528.47;;
21099;SDS011;10708;50.824;4.408;2023-03-23T21:15:56;875.17;;;501.23;;
21099;SDS011;10708;50.824;4.408;2023-03-23T21:21:00;860.97;;;492.80;;
21099;SDS011;10708;50.824;4.408;2023-03-23T21:26:05;910.28;;;538.85;;
21099;SDS011;10708;50.824;4.408;2023-03-23T21:31:09;897.92;;;534.85;;
21099;SDS011;10708;50.824;4.408;2023-03-23T21:36:12;906.95;;;529.65;;
21099;SDS011;10708;50.824;4.408;2023-03-23T21:41:15;919.77;;;548.17;;
21099;SDS011;10708;50.824;4.408;2023-03-23T21:46:18;931.60;;;568.50;;
21099;SDS011;10708;50.824;4.408;2023-03-23T21:51:21;919.50;;;544.70;;
21099;SDS011;10708;50.824;4.408;2023-03-23T21:56:26;897.53;;;506.90;;
21099;SDS011;10708;50.824;4.408;2023-03-23T22:01:28;926.13;;;565.78;;
21099;SDS011;10708;50.824;4.408;2023-03-23T22:06:31;931.42;;;554.33;;
21099;SDS011;10708;50.824;4.408;2023-03-23T22:11:35;885.28;;;530.25;;
21099;SDS011;10708;50.824;4.408;2023-03-23T22:16:39;886.93;;;490.33;;
21099;SDS011;10708;50.824;4.408;2023-03-23T22:21:42;926.50;;;565.28;;
21099;SDS011;10708;50.824;4.408;2023-03-23T22:26:46;919.22;;;537.40;;
21099;SDS011;10708;50.824;4.408;2023-03-23T22:31:48;929.75;;;553.88;;
21099;SDS011;10708;50.824;4.408;2023-03-23T22:36:51;927.08;;;567.47;;
21099;SDS011;10708;50.824;4.408;2023-03-23T22:41:54;902.80;;;534.17;;
21099;SDS011;10708;50.824;4.408;2023-03-23T22:46:57;905.37;;;520.87;;
21099;SDS011;10708;50.824;4.408;2023-03-23T22:51:59;917.50;;;552.90;;
21099;SDS011;10708;50.824;4.408;2023-03-23T22:57:03;924.97;;;563.25;;
21099;SDS011;10708;50.824;4.408;2023-03-23T23:02:05;924.75;;;548.30;;
21099;SDS011;10708;50.824;4.408;2023-03-23T23:07:08;918.10;;;551.83;;
21099;SDS011;10708;50.824;4.408;2023-03-23T23:12:15;900.53;;;518.28;;
21099;SDS011;10708;50.824;4.408;2023-03-23T23:17:18;891.55;;;496.35;;
21099;SDS011;10708;50.824;4.408;2023-03-23T23:22:20;872.83;;;461.57;;
21099;SDS011;10708;50.824;4.408;2023-03-23T23:27:24;917.88;;;535.97;;
21099;SDS011;10708;50.824;4.408;2023-03-23T23:32:27;899.90;;;510.17;;
21099;SDS011;10708;50.824;4.408;2023-03-23T23:37:29;908.42;;;518.50;;
21099;SDS011;10708;50.824;4.408;2023-03-23T23:42:33;899.33;;;506.80;;
21099;SDS011;10708;50.824;4.408;2023-03-23T23:47:36;870.00;;;467.08;;
21099;SDS011;10708;50.824;4.408;2023-03-23T23:52:39;887.25;;;490.75;;
21099;SDS011;10708;50.824;4.408;2023-03-23T23:57:46;888.13;;;502.73;;
